FIN1BA EGCC-EFHK
Flight info
| Callsign | FIN1BA |
|---|---|
| Flight time | 2h 31m |
| Altitude | 35000 |
| Route | POL P17 MEJAC DCT REKNA DCT VAXIT DCT DANKO DCT NERDO DCT TORVA DCT RIRIP Y364 LAKUT |
| Aircraft | A320/M-SDE3FGHIRWY/LB1 |
Departure
| Time | 2026-04-20 20:25 |
|---|---|
| Airport | Manchester Airport (EGCC) |
Arrival
| Time | 2026-04-20 22:56 |
|---|---|
| Airport | Helsinki Vantaa Airport (EFHK) |
| Time | Latitude | Longitude | Altitude | Speed | Heading |
|---|---|---|---|---|---|
| 2026-04-20 19:42 | 53.36864 | -2.28835 | 255 ft | 0 kts | 135° |
| 2026-04-20 20:06 | 53.36865 | -2.28836 | 255 ft | 2 kts | 135° |
| 2026-04-20 20:07 | 53.36882 | -2.28865 | 255 ft | 2 kts | 135° |
| 2026-04-20 20:07 | 53.36895 | -2.28884 | 255 ft | 4 kts | 192° |
| 2026-04-20 20:07 | 53.36907 | -2.28873 | 255 ft | 2 kts | 225° |
| 2026-04-20 20:07 | 53.36897 | -2.28889 | 255 ft | 4 kts | 225° |
| 2026-04-20 20:08 | 53.36878 | -2.28921 | 255 ft | 4 kts | 225° |
| 2026-04-20 20:08 | 53.36868 | -2.28938 | 255 ft | 0 kts | 225° |
| 2026-04-20 20:11 | 53.36849 | -2.28970 | 255 ft | 5 kts | 225° |
| 2026-04-20 20:12 | 53.36820 | -2.29008 | 255 ft | 6 kts | 208° |
| 2026-04-20 20:12 | 53.36787 | -2.29029 | 255 ft | 6 kts | 199° |
| 2026-04-20 20:12 | 53.36738 | -2.29022 | 255 ft | 7 kts | 148° |
| 2026-04-20 20:13 | 53.36682 | -2.28930 | 255 ft | 5 kts | 136° |
| 2026-04-20 20:13 | 53.36653 | -2.28905 | 255 ft | 4 kts | 161° |
| 2026-04-20 20:13 | 53.36641 | -2.28897 | 255 ft | 0 kts | 158° |
| 2026-04-20 20:15 | 53.36634 | -2.28891 | 255 ft | 5 kts | 151° |
| 2026-04-20 20:16 | 53.36609 | -2.28852 | 255 ft | 6 kts | 130° |
| 2026-04-20 20:16 | 53.36578 | -2.28769 | 255 ft | 9 kts | 120° |
| 2026-04-20 20:16 | 53.36535 | -2.28683 | 255 ft | 14 kts | 134° |
| 2026-04-20 20:16 | 53.36462 | -2.28560 | 255 ft | 15 kts | 135° |
| 2026-04-20 20:17 | 53.36405 | -2.28413 | 255 ft | 16 kts | 111° |
| 2026-04-20 20:17 | 53.36341 | -2.28281 | 255 ft | 7 kts | 135° |
| 2026-04-20 20:17 | 53.36311 | -2.28229 | 255 ft | 8 kts | 135° |
| 2026-04-20 20:17 | 53.36261 | -2.28150 | 255 ft | 9 kts | 144° |
| 2026-04-20 20:18 | 53.36205 | -2.28146 | 255 ft | 7 kts | 198° |
| 2026-04-20 20:18 | 53.36140 | -2.28124 | 255 ft | 14 kts | 139° |
| 2026-04-20 20:18 | 53.36073 | -2.28018 | 255 ft | 13 kts | 139° |
| 2026-04-20 20:18 | 53.36009 | -2.27928 | 255 ft | 11 kts | 140° |
| 2026-04-20 20:19 | 53.35951 | -2.27861 | 255 ft | 9 kts | 159° |
| 2026-04-20 20:19 | 53.35891 | -2.27852 | 255 ft | 10 kts | 185° |
| 2026-04-20 20:19 | 53.35801 | -2.27867 | 250 ft | 14 kts | 185° |
| 2026-04-20 20:19 | 53.35690 | -2.27885 | 244 ft | 17 kts | 185° |
| 2026-04-20 20:20 | 53.35584 | -2.27988 | 238 ft | 20 kts | 229° |
| 2026-04-20 20:20 | 53.35466 | -2.28143 | 236 ft | 21 kts | 198° |
| 2026-04-20 20:20 | 53.35324 | -2.28195 | 233 ft | 21 kts | 201° |
| 2026-04-20 20:20 | 53.35205 | -2.28356 | 231 ft | 23 kts | 231° |
| 2026-04-20 20:21 | 53.35095 | -2.28584 | 229 ft | 25 kts | 231° |
| 2026-04-20 20:21 | 53.34982 | -2.28798 | 226 ft | 23 kts | 226° |
| 2026-04-20 20:21 | 53.34868 | -2.28999 | 220 ft | 21 kts | 226° |
| 2026-04-20 20:21 | 53.34797 | -2.29070 | 218 ft | 0 kts | 193° |
| 2026-04-20 20:23 | 53.34781 | -2.29073 | 218 ft | 9 kts | 183° |
| 2026-04-20 20:23 | 53.34717 | -2.29049 | 222 ft | 11 kts | 158° |
| 2026-04-20 20:23 | 53.34673 | -2.28955 | 223 ft | 9 kts | 72° |
| 2026-04-20 20:23 | 53.34686 | -2.28924 | 220 ft | 0 kts | 50° |
| 2026-04-20 20:24 | 53.34695 | -2.28905 | 222 ft | 15 kts | 51° |
| 2026-04-20 20:24 | 53.34931 | -2.28417 | 233 ft | 89 kts | 51° |
| 2026-04-20 20:24 | 53.35454 | -2.27334 | 248 ft | 147 kts | 51° |
| 2026-04-20 20:25 | 53.36089 | -2.25933 | 735 ft | 149 kts | 55° |
| 2026-04-20 20:25 | 53.36710 | -2.24549 | 1365 ft | 150 kts | 52° |
| 2026-04-20 20:25 | 53.37396 | -2.23094 | 1737 ft | 170 kts | 52° |
| 2026-04-20 20:25 | 53.38177 | -2.21443 | 2006 ft | 192 kts | 52° |
| 2026-04-20 20:26 | 53.39054 | -2.19578 | 2267 ft | 216 kts | 52° |
| 2026-04-20 20:26 | 53.40033 | -2.17485 | 2642 ft | 240 kts | 52° |
| 2026-04-20 20:26 | 53.41079 | -2.15244 | 3386 ft | 246 kts | 53° |
| 2026-04-20 20:26 | 53.42132 | -2.12978 | 4287 ft | 248 kts | 53° |
| 2026-04-20 20:27 | 53.43239 | -2.10714 | 4826 ft | 253 kts | 44° |
| 2026-04-20 20:27 | 53.44801 | -2.09419 | 5030 ft | 257 kts | 9° |
| 2026-04-20 20:27 | 53.46601 | -2.09573 | 5014 ft | 261 kts | 353° |
| 2026-04-20 20:27 | 53.48419 | -2.09854 | 5622 ft | 263 kts | 359° |
| 2026-04-20 20:28 | 53.50246 | -2.09942 | 6496 ft | 264 kts | 1° |
| 2026-04-20 20:28 | 53.52092 | -2.09899 | 7322 ft | 266 kts | 3° |
| 2026-04-20 20:28 | 53.53951 | -2.09770 | 8120 ft | 269 kts | 4° |
| 2026-04-20 20:28 | 53.55832 | -2.09688 | 8895 ft | 272 kts | 1° |
| 2026-04-20 20:29 | 53.57737 | -2.09719 | 9664 ft | 275 kts | 360° |
| 2026-04-20 20:29 | 53.59666 | -2.09798 | 10402 ft | 279 kts | 359° |
| 2026-04-20 20:29 | 53.61641 | -2.09889 | 10738 ft | 299 kts | 359° |
| 2026-04-20 20:29 | 53.63804 | -2.09977 | 10916 ft | 322 kts | 359° |
| 2026-04-20 20:30 | 53.66122 | -2.10066 | 11059 ft | 345 kts | 359° |
| 2026-04-20 20:30 | 53.68568 | -2.10155 | 11503 ft | 355 kts | 359° |
| 2026-04-20 20:30 | 53.71058 | -2.10239 | 12130 ft | 359 kts | 359° |
| 2026-04-20 20:30 | 53.73571 | -2.10244 | 12740 ft | 363 kts | 4° |
| 2026-04-20 20:31 | 53.76071 | -2.09590 | 13354 ft | 366 kts | 14° |
| 2026-04-20 20:31 | 53.78539 | -2.08461 | 13954 ft | 369 kts | 15° |
| 2026-04-20 20:31 | 53.81024 | -2.07321 | 14543 ft | 372 kts | 15° |
| 2026-04-20 20:31 | 53.83535 | -2.06177 | 15120 ft | 375 kts | 15° |
| 2026-04-20 20:32 | 53.86061 | -2.05027 | 15702 ft | 377 kts | 15° |
| 2026-04-20 20:32 | 53.88605 | -2.03868 | 16263 ft | 381 kts | 15° |
| 2026-04-20 20:32 | 53.91176 | -2.02696 | 16805 ft | 384 kts | 15° |
| 2026-04-20 20:32 | 53.93765 | -2.01515 | 17332 ft | 387 kts | 15° |
| 2026-04-20 20:33 | 53.96374 | -2.00324 | 17860 ft | 390 kts | 15° |
| 2026-04-20 20:33 | 53.99007 | -1.99119 | 18395 ft | 393 kts | 15° |
| 2026-04-20 20:33 | 54.01656 | -1.97906 | 18894 ft | 396 kts | 15° |
| 2026-04-20 20:33 | 54.04325 | -1.96680 | 19396 ft | 399 kts | 15° |
| 2026-04-20 20:34 | 54.07012 | -1.95448 | 19879 ft | 401 kts | 15° |
| 2026-04-20 20:34 | 54.09720 | -1.94208 | 20320 ft | 404 kts | 15° |
| 2026-04-20 20:34 | 54.12444 | -1.92959 | 20756 ft | 407 kts | 15° |
| 2026-04-20 20:34 | 54.15186 | -1.91700 | 21174 ft | 410 kts | 15° |
| 2026-04-20 20:35 | 54.17951 | -1.90426 | 21574 ft | 413 kts | 15° |
| 2026-04-20 20:35 | 54.20731 | -1.89138 | 21981 ft | 416 kts | 15° |
| 2026-04-20 20:35 | 54.23535 | -1.87839 | 22365 ft | 418 kts | 15° |
| 2026-04-20 20:35 | 54.26349 | -1.86533 | 22749 ft | 420 kts | 15° |
| 2026-04-20 20:36 | 54.29151 | -1.85066 | 23090 ft | 423 kts | 21° |
| 2026-04-20 20:36 | 54.31799 | -1.82822 | 23430 ft | 426 kts | 32° |
| 2026-04-20 20:36 | 54.34189 | -1.79819 | 23767 ft | 428 kts | 41° |
| 2026-04-20 20:36 | 54.36385 | -1.75880 | 24114 ft | 430 kts | 52° |
| 2026-04-20 20:37 | 54.37959 | -1.71999 | 24408 ft | 432 kts | 57° |
| 2026-04-20 20:37 | 54.39633 | -1.67621 | 24727 ft | 434 kts | 57° |
| 2026-04-20 20:37 | 54.41288 | -1.63270 | 25030 ft | 437 kts | 57° |
| 2026-04-20 20:37 | 54.42949 | -1.58891 | 25319 ft | 439 kts | 57° |
| 2026-04-20 20:38 | 54.44619 | -1.54486 | 25605 ft | 440 kts | 57° |
| 2026-04-20 20:38 | 54.46272 | -1.50122 | 25870 ft | 443 kts | 57° |
| 2026-04-20 20:38 | 54.47972 | -1.45615 | 26136 ft | 444 kts | 57° |
| 2026-04-20 20:38 | 54.49633 | -1.41210 | 26392 ft | 446 kts | 57° |
| 2026-04-20 20:39 | 54.51328 | -1.36712 | 26645 ft | 448 kts | 57° |
| 2026-04-20 20:39 | 54.53027 | -1.32197 | 26888 ft | 450 kts | 57° |
| 2026-04-20 20:39 | 54.54728 | -1.27671 | 27119 ft | 452 kts | 57° |
| 2026-04-20 20:39 | 54.56439 | -1.23115 | 27337 ft | 453 kts | 57° |
| 2026-04-20 20:40 | 54.58151 | -1.18545 | 27554 ft | 455 kts | 57° |
| 2026-04-20 20:40 | 54.59864 | -1.13957 | 27760 ft | 456 kts | 57° |
| 2026-04-20 20:40 | 54.61580 | -1.09338 | 27964 ft | 458 kts | 57° |
| 2026-04-20 20:40 | 54.63297 | -1.04704 | 28221 ft | 457 kts | 57° |
| 2026-04-20 20:41 | 54.65013 | -1.00080 | 28507 ft | 457 kts | 57° |
| 2026-04-20 20:41 | 54.66726 | -0.95464 | 28784 ft | 457 kts | 57° |
| 2026-04-20 20:41 | 54.68435 | -0.90848 | 29069 ft | 456 kts | 57° |
| 2026-04-20 20:41 | 54.70140 | -0.86239 | 29331 ft | 455 kts | 57° |
| 2026-04-20 20:42 | 54.71842 | -0.81629 | 29595 ft | 455 kts | 57° |
| 2026-04-20 20:42 | 54.73545 | -0.77006 | 29855 ft | 454 kts | 57° |
| 2026-04-20 20:42 | 54.75238 | -0.72396 | 30117 ft | 454 kts | 57° |
| 2026-04-20 20:42 | 54.76926 | -0.67780 | 30365 ft | 454 kts | 57° |
| 2026-04-20 20:43 | 54.78611 | -0.63156 | 30603 ft | 453 kts | 57° |
| 2026-04-20 20:43 | 54.80294 | -0.58531 | 30853 ft | 453 kts | 57° |
| 2026-04-20 20:43 | 54.81978 | -0.53911 | 31104 ft | 453 kts | 57° |
| 2026-04-20 20:43 | 54.83664 | -0.49284 | 31349 ft | 453 kts | 57° |
| 2026-04-20 20:44 | 54.85345 | -0.44660 | 31587 ft | 453 kts | 57° |
| 2026-04-20 20:44 | 54.87022 | -0.40032 | 31823 ft | 453 kts | 57° |
| 2026-04-20 20:44 | 54.88698 | -0.35395 | 32061 ft | 453 kts | 57° |
| 2026-04-20 20:44 | 54.90369 | -0.30757 | 32303 ft | 453 kts | 57° |
| 2026-04-20 20:45 | 54.92045 | -0.26109 | 32541 ft | 453 kts | 57° |
| 2026-04-20 20:45 | 54.93691 | -0.21531 | 32769 ft | 453 kts | 57° |
| 2026-04-20 20:45 | 54.95386 | -0.16818 | 32995 ft | 453 kts | 57° |
| 2026-04-20 20:45 | 54.97051 | -0.12170 | 33226 ft | 453 kts | 57° |
| 2026-04-20 20:46 | 54.98697 | -0.07563 | 33454 ft | 453 kts | 58° |
| 2026-04-20 20:46 | 55.00381 | -0.02835 | 33690 ft | 453 kts | 57° |
| 2026-04-20 20:46 | 55.02019 | 0.01770 | 33914 ft | 453 kts | 57° |
| 2026-04-20 20:46 | 55.03678 | 0.06430 | 34163 ft | 452 kts | 57° |
| 2026-04-20 20:47 | 55.05333 | 0.11078 | 34437 ft | 450 kts | 58° |
| 2026-04-20 20:47 | 55.06981 | 0.15704 | 34715 ft | 449 kts | 58° |
| 2026-04-20 20:47 | 55.08626 | 0.20330 | 34957 ft | 448 kts | 58° |
| 2026-04-20 20:47 | 55.10263 | 0.24967 | 35161 ft | 448 kts | 59° |
| 2026-04-20 20:48 | 55.11894 | 0.29606 | 35337 ft | 449 kts | 59° |
| 2026-04-20 20:48 | 55.13527 | 0.34269 | 35394 ft | 451 kts | 59° |
| 2026-04-20 20:48 | 55.16812 | 0.43654 | 35393 ft | 453 kts | 59° |
| 2026-04-20 20:49 | 55.20101 | 0.53057 | 35394 ft | 452 kts | 59° |
| 2026-04-20 20:49 | 55.23376 | 0.62458 | 35394 ft | 452 kts | 59° |
| 2026-04-20 20:50 | 55.26644 | 0.71885 | 35394 ft | 452 kts | 59° |
| 2026-04-20 20:50 | 55.29897 | 0.81328 | 35398 ft | 452 kts | 59° |
| 2026-04-20 20:51 | 55.33145 | 0.90786 | 35401 ft | 452 kts | 59° |
| 2026-04-20 20:51 | 55.36389 | 1.00253 | 35404 ft | 452 kts | 59° |
| 2026-04-20 20:52 | 55.39626 | 1.09730 | 35405 ft | 452 kts | 59° |
| 2026-04-20 20:52 | 55.42826 | 1.19152 | 35407 ft | 451 kts | 59° |
| 2026-04-20 20:53 | 55.46034 | 1.28638 | 35405 ft | 451 kts | 60° |
| 2026-04-20 20:53 | 55.49230 | 1.38139 | 35407 ft | 450 kts | 60° |
| 2026-04-20 20:54 | 55.52419 | 1.47636 | 35411 ft | 450 kts | 60° |
| 2026-04-20 20:54 | 55.55604 | 1.57142 | 35409 ft | 449 kts | 60° |
| 2026-04-20 20:55 | 55.58784 | 1.66650 | 35413 ft | 449 kts | 60° |
| 2026-04-20 20:55 | 55.61948 | 1.76171 | 35417 ft | 449 kts | 60° |
| 2026-04-20 20:56 | 55.65099 | 1.85716 | 35419 ft | 449 kts | 60° |
| 2026-04-20 20:56 | 55.68235 | 1.95250 | 35421 ft | 447 kts | 60° |
| 2026-04-20 20:57 | 55.71363 | 2.04787 | 35418 ft | 447 kts | 61° |
| 2026-04-20 20:57 | 55.73948 | 2.12719 | 35415 ft | 447 kts | 61° |
| 2026-04-20 20:58 | 55.77071 | 2.22286 | 35418 ft | 448 kts | 60° |
| 2026-04-20 20:58 | 55.80192 | 2.31872 | 35422 ft | 448 kts | 61° |
| 2026-04-20 20:59 | 55.83287 | 2.41474 | 35424 ft | 447 kts | 61° |
| 2026-04-20 20:59 | 55.86374 | 2.51076 | 35428 ft | 447 kts | 61° |
| 2026-04-20 21:00 | 55.89452 | 2.60696 | 35431 ft | 447 kts | 61° |
| 2026-04-20 21:00 | 55.92525 | 2.70322 | 35435 ft | 447 kts | 61° |
| 2026-04-20 21:01 | 55.95597 | 2.79958 | 35438 ft | 447 kts | 62° |
| 2026-04-20 21:01 | 55.98626 | 2.89551 | 35439 ft | 447 kts | 62° |
| 2026-04-20 21:02 | 56.01673 | 2.99219 | 35440 ft | 446 kts | 62° |
| 2026-04-20 21:02 | 56.04708 | 3.08860 | 35438 ft | 444 kts | 62° |
| 2026-04-20 21:03 | 56.07714 | 3.18491 | 35433 ft | 443 kts | 62° |
| 2026-04-20 21:03 | 56.10709 | 3.28109 | 35435 ft | 442 kts | 62° |
| 2026-04-20 21:04 | 56.13700 | 3.37721 | 35439 ft | 441 kts | 62° |
| 2026-04-20 21:04 | 56.16666 | 3.47356 | 35438 ft | 441 kts | 62° |
| 2026-04-20 21:05 | 56.19439 | 3.57159 | 35437 ft | 440 kts | 66° |
| 2026-04-20 21:05 | 56.21877 | 3.67145 | 35430 ft | 439 kts | 68° |
| 2026-04-20 21:06 | 56.24273 | 3.77243 | 35428 ft | 439 kts | 68° |
| 2026-04-20 21:06 | 56.26720 | 3.87288 | 35430 ft | 439 kts | 67° |
| 2026-04-20 21:07 | 56.29188 | 3.97316 | 35429 ft | 438 kts | 67° |
| 2026-04-20 21:07 | 56.31648 | 4.07342 | 35426 ft | 438 kts | 67° |
| 2026-04-20 21:08 | 56.34099 | 4.17396 | 35425 ft | 438 kts | 67° |
| 2026-04-20 21:08 | 56.36536 | 4.27476 | 35429 ft | 438 kts | 67° |
| 2026-04-20 21:09 | 56.38968 | 4.37565 | 35429 ft | 439 kts | 67° |
| 2026-04-20 21:09 | 56.41396 | 4.47667 | 35438 ft | 438 kts | 67° |
| 2026-04-20 21:10 | 56.43808 | 4.57761 | 35429 ft | 437 kts | 68° |
| 2026-04-20 21:10 | 56.46202 | 4.67844 | 35431 ft | 437 kts | 68° |
| 2026-04-20 21:11 | 56.48587 | 4.77949 | 35441 ft | 437 kts | 68° |
| 2026-04-20 21:11 | 56.50948 | 4.87993 | 35441 ft | 436 kts | 68° |
| 2026-04-20 21:12 | 56.53313 | 4.98113 | 35442 ft | 437 kts | 68° |
| 2026-04-20 21:12 | 56.55853 | 5.08104 | 35446 ft | 437 kts | 64° |
| 2026-04-20 21:13 | 56.58686 | 5.17859 | 35449 ft | 437 kts | 62° |
| 2026-04-20 21:13 | 56.61524 | 5.27599 | 35449 ft | 436 kts | 63° |
| 2026-04-20 21:14 | 56.64277 | 5.37402 | 35446 ft | 435 kts | 64° |
| 2026-04-20 21:14 | 56.66985 | 5.47233 | 35443 ft | 435 kts | 64° |
| 2026-04-20 21:15 | 56.69699 | 5.57082 | 35446 ft | 435 kts | 64° |
| 2026-04-20 21:15 | 56.72412 | 5.66934 | 35447 ft | 435 kts | 64° |
| 2026-04-20 21:16 | 56.75120 | 5.76792 | 35447 ft | 435 kts | 64° |
| 2026-04-20 21:16 | 56.77812 | 5.86666 | 35448 ft | 435 kts | 64° |
| 2026-04-20 21:17 | 56.80494 | 5.96561 | 35451 ft | 435 kts | 64° |
| 2026-04-20 21:17 | 56.83167 | 6.06482 | 35457 ft | 436 kts | 64° |
| 2026-04-20 21:18 | 56.85841 | 6.16409 | 35461 ft | 435 kts | 64° |
| 2026-04-20 21:18 | 56.88506 | 6.26350 | 35464 ft | 436 kts | 64° |
| 2026-04-20 21:19 | 56.91166 | 6.36306 | 35464 ft | 436 kts | 64° |
| 2026-04-20 21:20 | 56.95121 | 6.51182 | 35464 ft | 434 kts | 64° |
| 2026-04-20 21:20 | 56.97745 | 6.61157 | 35464 ft | 435 kts | 64° |
| 2026-04-20 21:21 | 57.00472 | 6.71035 | 35465 ft | 435 kts | 57° |
| 2026-04-20 21:21 | 57.03865 | 6.80233 | 35467 ft | 435 kts | 56° |
| 2026-04-20 21:22 | 57.07255 | 6.89441 | 35469 ft | 435 kts | 57° |
| 2026-04-20 21:22 | 57.10638 | 6.98688 | 35469 ft | 435 kts | 57° |
| 2026-04-20 21:23 | 57.14007 | 7.07934 | 35468 ft | 435 kts | 57° |
| 2026-04-20 21:23 | 57.17367 | 7.17191 | 35466 ft | 434 kts | 57° |
| 2026-04-20 21:24 | 57.20718 | 7.26464 | 35470 ft | 434 kts | 57° |
| 2026-04-20 21:24 | 57.24069 | 7.35747 | 35471 ft | 435 kts | 57° |
| 2026-04-20 21:25 | 57.27411 | 7.45070 | 35474 ft | 435 kts | 57° |
| 2026-04-20 21:25 | 57.30746 | 7.54405 | 35480 ft | 435 kts | 57° |
| 2026-04-20 21:26 | 57.34059 | 7.63695 | 35483 ft | 435 kts | 57° |
| 2026-04-20 21:26 | 57.37382 | 7.73055 | 35477 ft | 435 kts | 57° |
| 2026-04-20 21:27 | 57.40700 | 7.82431 | 35484 ft | 435 kts | 57° |
| 2026-04-20 21:27 | 57.44009 | 7.91812 | 35483 ft | 434 kts | 58° |
| 2026-04-20 21:28 | 57.47303 | 8.01202 | 35482 ft | 434 kts | 58° |
| 2026-04-20 21:28 | 57.50590 | 8.10606 | 35485 ft | 433 kts | 58° |
| 2026-04-20 21:29 | 57.53863 | 8.20004 | 35484 ft | 433 kts | 58° |
| 2026-04-20 21:29 | 57.57128 | 8.29433 | 35480 ft | 433 kts | 58° |
| 2026-04-20 21:30 | 57.60380 | 8.38877 | 35485 ft | 433 kts | 58° |
| 2026-04-20 21:30 | 57.63626 | 8.48334 | 35484 ft | 432 kts | 58° |
| 2026-04-20 21:31 | 57.66845 | 8.57717 | 35482 ft | 432 kts | 58° |
| 2026-04-20 21:31 | 57.70098 | 8.67246 | 35478 ft | 432 kts | 58° |
| 2026-04-20 21:32 | 57.73303 | 8.76667 | 35472 ft | 432 kts | 58° |
| 2026-04-20 21:32 | 57.76518 | 8.86161 | 35471 ft | 432 kts | 58° |
| 2026-04-20 21:33 | 57.79730 | 8.95685 | 35474 ft | 432 kts | 58° |
| 2026-04-20 21:33 | 57.82932 | 9.05223 | 35473 ft | 432 kts | 59° |
| 2026-04-20 21:34 | 57.86127 | 9.14783 | 35477 ft | 432 kts | 59° |
| 2026-04-20 21:34 | 57.89217 | 9.24447 | 35474 ft | 431 kts | 65° |
| 2026-04-20 21:35 | 57.91802 | 9.34595 | 35475 ft | 430 kts | 65° |
| 2026-04-20 21:35 | 57.94388 | 9.44752 | 35473 ft | 430 kts | 65° |
| 2026-04-20 21:36 | 57.96960 | 9.54915 | 35472 ft | 430 kts | 65° |
| 2026-04-20 21:36 | 57.99524 | 9.65093 | 35472 ft | 430 kts | 65° |
| 2026-04-20 21:37 | 58.02076 | 9.75285 | 35472 ft | 429 kts | 66° |
| 2026-04-20 21:37 | 58.04620 | 9.85482 | 35472 ft | 429 kts | 66° |
| 2026-04-20 21:38 | 58.07157 | 9.95682 | 35472 ft | 429 kts | 66° |
| 2026-04-20 21:38 | 58.09679 | 10.05887 | 35470 ft | 429 kts | 66° |
| 2026-04-20 21:39 | 58.12194 | 10.16116 | 35469 ft | 429 kts | 66° |
| 2026-04-20 21:39 | 58.14693 | 10.26342 | 35465 ft | 428 kts | 66° |
| 2026-04-20 21:40 | 58.17181 | 10.36503 | 35461 ft | 428 kts | 66° |
| 2026-04-20 21:40 | 58.19664 | 10.46743 | 35460 ft | 428 kts | 66° |
| 2026-04-20 21:41 | 58.22139 | 10.56990 | 35456 ft | 427 kts | 66° |
| 2026-04-20 21:41 | 58.24608 | 10.67250 | 35453 ft | 428 kts | 66° |
| 2026-04-20 21:42 | 58.27070 | 10.77535 | 35453 ft | 428 kts | 66° |
| 2026-04-20 21:42 | 58.29522 | 10.87834 | 35453 ft | 428 kts | 66° |
| 2026-04-20 21:43 | 58.31962 | 10.98154 | 35451 ft | 427 kts | 66° |
| 2026-04-20 21:43 | 58.34389 | 11.08475 | 35450 ft | 427 kts | 66° |
| 2026-04-20 21:44 | 58.36814 | 11.18798 | 35446 ft | 427 kts | 67° |
| 2026-04-20 21:44 | 58.39225 | 11.29127 | 35444 ft | 427 kts | 67° |
| 2026-04-20 21:45 | 58.41633 | 11.39474 | 35447 ft | 427 kts | 67° |
| 2026-04-20 21:45 | 58.44035 | 11.49844 | 35453 ft | 427 kts | 67° |
| 2026-04-20 21:46 | 58.46421 | 11.60232 | 35454 ft | 427 kts | 67° |
| 2026-04-20 21:46 | 58.48795 | 11.70613 | 35452 ft | 426 kts | 67° |
| 2026-04-20 21:47 | 58.51162 | 11.80986 | 35454 ft | 425 kts | 67° |
| 2026-04-20 21:47 | 58.53521 | 11.91373 | 35451 ft | 426 kts | 67° |
| 2026-04-20 21:48 | 58.55874 | 12.01768 | 35453 ft | 425 kts | 67° |
| 2026-04-20 21:48 | 58.58209 | 12.12159 | 35450 ft | 424 kts | 68° |
| 2026-04-20 21:49 | 58.60529 | 12.22574 | 35448 ft | 424 kts | 68° |
| 2026-04-20 21:49 | 58.62452 | 12.31228 | 35447 ft | 425 kts | 68° |
| 2026-04-20 21:50 | 58.65136 | 12.43360 | 35444 ft | 425 kts | 68° |
| 2026-04-20 21:50 | 58.67445 | 12.53806 | 35448 ft | 425 kts | 68° |
| 2026-04-20 21:51 | 58.69368 | 12.62570 | 35446 ft | 425 kts | 68° |
| 2026-04-20 21:51 | 58.71648 | 12.73053 | 35447 ft | 425 kts | 68° |
| 2026-04-20 21:52 | 58.73901 | 12.83457 | 35444 ft | 424 kts | 68° |
| 2026-04-20 21:52 | 58.76167 | 12.93928 | 35443 ft | 424 kts | 68° |
| 2026-04-20 21:53 | 58.78420 | 13.04421 | 35445 ft | 424 kts | 68° |
| 2026-04-20 21:53 | 58.80670 | 13.14931 | 35444 ft | 424 kts | 68° |
| 2026-04-20 21:54 | 58.82914 | 13.25467 | 35448 ft | 425 kts | 69° |
| 2026-04-20 21:54 | 58.85150 | 13.36035 | 35453 ft | 425 kts | 69° |
| 2026-04-20 21:55 | 58.87380 | 13.46609 | 35453 ft | 424 kts | 69° |
| 2026-04-20 21:55 | 58.89595 | 13.57177 | 35450 ft | 424 kts | 69° |
| 2026-04-20 21:56 | 58.91800 | 13.67758 | 35448 ft | 424 kts | 69° |
| 2026-04-20 21:56 | 58.93987 | 13.78348 | 35446 ft | 424 kts | 69° |
| 2026-04-20 21:57 | 58.96172 | 13.88946 | 35446 ft | 423 kts | 69° |
| 2026-04-20 21:57 | 58.98350 | 13.99550 | 35446 ft | 423 kts | 69° |
| 2026-04-20 21:58 | 59.00512 | 14.10163 | 35444 ft | 423 kts | 69° |
| 2026-04-20 21:58 | 59.02668 | 14.20779 | 35440 ft | 423 kts | 69° |
| 2026-04-20 21:59 | 59.04823 | 14.31408 | 35440 ft | 423 kts | 69° |
| 2026-04-20 21:59 | 59.06961 | 14.42060 | 35444 ft | 423 kts | 70° |
| 2026-04-20 22:00 | 59.09084 | 14.52723 | 35447 ft | 422 kts | 70° |
| 2026-04-20 22:00 | 59.11200 | 14.63372 | 35446 ft | 422 kts | 70° |
| 2026-04-20 22:01 | 59.13311 | 14.74032 | 35444 ft | 422 kts | 70° |
| 2026-04-20 22:01 | 59.15407 | 14.84689 | 35442 ft | 421 kts | 70° |
| 2026-04-20 22:02 | 59.17497 | 14.95357 | 35439 ft | 421 kts | 70° |
| 2026-04-20 22:02 | 59.19557 | 15.05968 | 35441 ft | 421 kts | 70° |
| 2026-04-20 22:03 | 59.21626 | 15.16682 | 35445 ft | 422 kts | 70° |
| 2026-04-20 22:03 | 59.23688 | 15.27403 | 35447 ft | 422 kts | 70° |
| 2026-04-20 22:04 | 59.25742 | 15.38129 | 35447 ft | 421 kts | 70° |
| 2026-04-20 22:04 | 59.27789 | 15.48855 | 35445 ft | 421 kts | 70° |
| 2026-04-20 22:05 | 59.29815 | 15.59594 | 35444 ft | 420 kts | 71° |
| 2026-04-20 22:05 | 59.31833 | 15.70330 | 35441 ft | 420 kts | 71° |
| 2026-04-20 22:06 | 59.33850 | 15.81071 | 35445 ft | 420 kts | 71° |
| 2026-04-20 22:06 | 59.35852 | 15.91824 | 35446 ft | 420 kts | 71° |
| 2026-04-20 22:07 | 59.37838 | 16.02574 | 35444 ft | 419 kts | 71° |
| 2026-04-20 22:07 | 59.39814 | 16.13344 | 35447 ft | 420 kts | 71° |
| 2026-04-20 22:08 | 59.41779 | 16.24138 | 35447 ft | 420 kts | 71° |
| 2026-04-20 22:08 | 59.43680 | 16.34969 | 35446 ft | 419 kts | 72° |
| 2026-04-20 22:09 | 59.45541 | 16.45816 | 35446 ft | 419 kts | 72° |
| 2026-04-20 22:09 | 59.47404 | 16.56667 | 35447 ft | 419 kts | 72° |
| 2026-04-20 22:10 | 59.49258 | 16.67453 | 35447 ft | 419 kts | 72° |
| 2026-04-20 22:10 | 59.51111 | 16.78316 | 35448 ft | 419 kts | 72° |
| 2026-04-20 22:11 | 59.52956 | 16.89190 | 35449 ft | 418 kts | 72° |
| 2026-04-20 22:11 | 59.54785 | 17.00066 | 35447 ft | 418 kts | 72° |
| 2026-04-20 22:12 | 59.56599 | 17.10952 | 35442 ft | 418 kts | 72° |
| 2026-04-20 22:12 | 59.58405 | 17.21833 | 35443 ft | 417 kts | 72° |
| 2026-04-20 22:13 | 59.60210 | 17.32722 | 35439 ft | 417 kts | 72° |
| 2026-04-20 22:13 | 59.62002 | 17.43614 | 35442 ft | 417 kts | 73° |
| 2026-04-20 22:14 | 59.63775 | 17.54524 | 35444 ft | 416 kts | 73° |
| 2026-04-20 22:14 | 59.65545 | 17.65428 | 35439 ft | 417 kts | 73° |
| 2026-04-20 22:15 | 59.67306 | 17.76352 | 35438 ft | 416 kts | 73° |
| 2026-04-20 22:15 | 59.69053 | 17.87254 | 35431 ft | 416 kts | 73° |
| 2026-04-20 22:16 | 59.70789 | 17.98172 | 35426 ft | 416 kts | 73° |
| 2026-04-20 22:16 | 59.72520 | 18.09091 | 35421 ft | 415 kts | 73° |
| 2026-04-20 22:17 | 59.74239 | 18.20018 | 35420 ft | 415 kts | 73° |
| 2026-04-20 22:17 | 59.75946 | 18.30940 | 35417 ft | 414 kts | 73° |
| 2026-04-20 22:18 | 59.77639 | 18.41850 | 35412 ft | 414 kts | 73° |
| 2026-04-20 22:18 | 59.79321 | 18.52794 | 35410 ft | 415 kts | 73° |
| 2026-04-20 22:19 | 59.81000 | 18.63749 | 35415 ft | 414 kts | 73° |
| 2026-04-20 22:19 | 59.82669 | 18.74704 | 35417 ft | 414 kts | 73° |
| 2026-04-20 22:20 | 59.84325 | 18.85595 | 35420 ft | 414 kts | 73° |
| 2026-04-20 22:20 | 59.85977 | 18.96568 | 35422 ft | 414 kts | 73° |
| 2026-04-20 22:21 | 59.87613 | 19.07539 | 35421 ft | 413 kts | 73° |
| 2026-04-20 22:21 | 59.89236 | 19.18505 | 35419 ft | 413 kts | 73° |
| 2026-04-20 22:22 | 59.90853 | 19.29489 | 35419 ft | 413 kts | 74° |
| 2026-04-20 22:22 | 59.92459 | 19.40489 | 35424 ft | 413 kts | 73° |
| 2026-04-20 22:23 | 59.94062 | 19.51487 | 35429 ft | 413 kts | 74° |
| 2026-04-20 22:23 | 59.95655 | 19.62492 | 35429 ft | 413 kts | 74° |
| 2026-04-20 22:24 | 59.97236 | 19.73503 | 35428 ft | 413 kts | 74° |
| 2026-04-20 22:24 | 59.98804 | 19.84510 | 35425 ft | 412 kts | 74° |
| 2026-04-20 22:25 | 60.00364 | 19.95539 | 35426 ft | 412 kts | 74° |
| 2026-04-20 22:25 | 60.01917 | 20.06573 | 35426 ft | 412 kts | 74° |
| 2026-04-20 22:26 | 60.03456 | 20.17605 | 35427 ft | 412 kts | 74° |
| 2026-04-20 22:26 | 60.04990 | 20.28670 | 35423 ft | 413 kts | 74° |
| 2026-04-20 22:27 | 60.07274 | 20.45277 | 35415 ft | 412 kts | 74° |
| 2026-04-20 22:27 | 60.08789 | 20.56354 | 35413 ft | 413 kts | 74° |
| 2026-04-20 22:28 | 60.10294 | 20.67459 | 35410 ft | 413 kts | 75° |
| 2026-04-20 22:28 | 60.11788 | 20.78576 | 35406 ft | 414 kts | 75° |
| 2026-04-20 22:29 | 60.13271 | 20.89719 | 35403 ft | 414 kts | 75° |
| 2026-04-20 22:29 | 60.14739 | 21.00804 | 35397 ft | 414 kts | 75° |
| 2026-04-20 22:30 | 60.16204 | 21.11958 | 35393 ft | 413 kts | 75° |
| 2026-04-20 22:30 | 60.17654 | 21.23105 | 35386 ft | 412 kts | 75° |
| 2026-04-20 22:31 | 60.19095 | 21.34257 | 35387 ft | 412 kts | 75° |
| 2026-04-20 22:31 | 60.20520 | 21.45401 | 35384 ft | 411 kts | 75° |
| 2026-04-20 22:32 | 60.21763 | 21.56627 | 35379 ft | 411 kts | 77° |
| 2026-04-20 22:32 | 60.22894 | 21.67893 | 35376 ft | 410 kts | 77° |
| 2026-04-20 22:33 | 60.24027 | 21.79131 | 35375 ft | 410 kts | 77° |
| 2026-04-20 22:33 | 60.25181 | 21.90366 | 35377 ft | 410 kts | 77° |
| 2026-04-20 22:34 | 60.26331 | 22.01593 | 35373 ft | 409 kts | 77° |
| 2026-04-20 22:34 | 60.27460 | 22.12744 | 35374 ft | 409 kts | 77° |
| 2026-04-20 22:35 | 60.28586 | 22.23992 | 35370 ft | 410 kts | 77° |
| 2026-04-20 22:35 | 60.29703 | 22.35264 | 35178 ft | 410 kts | 77° |
| 2026-04-20 22:36 | 60.30254 | 22.40899 | 34929 ft | 410 kts | 78° |
| 2026-04-20 22:36 | 60.30803 | 22.46525 | 34682 ft | 409 kts | 77° |
| 2026-04-20 22:36 | 60.31350 | 22.52145 | 34429 ft | 408 kts | 77° |
| 2026-04-20 22:36 | 60.31894 | 22.57757 | 34180 ft | 407 kts | 77° |
| 2026-04-20 22:37 | 60.32437 | 22.63354 | 33913 ft | 406 kts | 77° |
| 2026-04-20 22:37 | 60.32981 | 22.68953 | 32954 ft | 409 kts | 77° |
| 2026-04-20 22:37 | 60.33528 | 22.74617 | 31890 ft | 413 kts | 77° |
| 2026-04-20 22:37 | 60.34075 | 22.80316 | 30931 ft | 414 kts | 77° |
| 2026-04-20 22:38 | 60.34619 | 22.86032 | 29851 ft | 416 kts | 77° |
| 2026-04-20 22:38 | 60.35160 | 22.91784 | 28742 ft | 418 kts | 77° |
| 2026-04-20 22:38 | 60.35701 | 22.97564 | 27629 ft | 419 kts | 77° |
| 2026-04-20 22:38 | 60.36244 | 23.03365 | 26511 ft | 420 kts | 77° |
| 2026-04-20 22:39 | 60.36786 | 23.09165 | 25391 ft | 420 kts | 77° |
| 2026-04-20 22:39 | 60.37325 | 23.14973 | 24270 ft | 420 kts | 76° |
| 2026-04-20 22:39 | 60.37678 | 23.18812 | 23554 ft | 420 kts | 76° |
| 2026-04-20 22:39 | 60.38205 | 23.24578 | 22714 ft | 414 kts | 77° |
| 2026-04-20 22:40 | 60.38722 | 23.30267 | 21927 ft | 409 kts | 77° |
| 2026-04-20 22:40 | 60.39398 | 23.37699 | 20929 ft | 402 kts | 77° |
| 2026-04-20 22:40 | 60.39899 | 23.43230 | 20200 ft | 398 kts | 77° |
| 2026-04-20 22:40 | 60.40393 | 23.48700 | 19487 ft | 393 kts | 77° |
| 2026-04-20 22:41 | 60.40721 | 23.52371 | 19014 ft | 391 kts | 77° |
| 2026-04-20 22:41 | 60.41196 | 23.57751 | 18338 ft | 386 kts | 77° |
| 2026-04-20 22:41 | 60.41662 | 23.63074 | 17798 ft | 380 kts | 77° |
| 2026-04-20 22:41 | 60.42110 | 23.68224 | 17661 ft | 364 kts | 77° |
| 2026-04-20 22:42 | 60.42540 | 23.73168 | 17533 ft | 349 kts | 77° |
| 2026-04-20 22:42 | 60.42952 | 23.77906 | 17413 ft | 335 kts | 77° |
| 2026-04-20 22:42 | 60.43346 | 23.82459 | 17280 ft | 322 kts | 77° |
| 2026-04-20 22:42 | 60.43725 | 23.86831 | 17160 ft | 309 kts | 77° |
| 2026-04-20 22:43 | 60.44050 | 23.91057 | 17030 ft | 299 kts | 79° |
| 2026-04-20 22:43 | 60.44300 | 23.95175 | 16840 ft | 291 kts | 80° |
| 2026-04-20 22:43 | 60.44520 | 23.99211 | 16728 ft | 287 kts | 80° |
| 2026-04-20 22:43 | 60.44735 | 24.03231 | 16650 ft | 287 kts | 81° |
| 2026-04-20 22:44 | 60.44721 | 24.07305 | 16337 ft | 293 kts | 89° |
| 2026-04-20 22:44 | 60.44602 | 24.11432 | 15966 ft | 292 kts | 89° |
| 2026-04-20 22:44 | 60.44476 | 24.15529 | 15452 ft | 290 kts | 89° |
| 2026-04-20 22:44 | 60.44350 | 24.19508 | 14944 ft | 285 kts | 89° |
| 2026-04-20 22:45 | 60.44221 | 24.23547 | 14487 ft | 283 kts | 89° |
| 2026-04-20 22:45 | 60.44101 | 24.27458 | 14044 ft | 281 kts | 89° |
| 2026-04-20 22:45 | 60.43979 | 24.31448 | 13596 ft | 279 kts | 89° |
| 2026-04-20 22:45 | 60.43860 | 24.35369 | 13160 ft | 279 kts | 89° |
| 2026-04-20 22:46 | 60.43741 | 24.39246 | 12726 ft | 280 kts | 89° |
| 2026-04-20 22:46 | 60.43622 | 24.43201 | 12327 ft | 281 kts | 89° |
| 2026-04-20 22:46 | 60.43382 | 24.47102 | 11880 ft | 281 kts | 101° |
| 2026-04-20 22:46 | 60.42612 | 24.50745 | 11411 ft | 284 kts | 117° |
| 2026-04-20 22:47 | 60.41340 | 24.53828 | 10946 ft | 289 kts | 134° |
| 2026-04-20 22:47 | 60.39790 | 24.56438 | 10485 ft | 290 kts | 136° |
| 2026-04-20 22:47 | 60.38241 | 24.59028 | 10026 ft | 288 kts | 136° |
| 2026-04-20 22:47 | 60.36697 | 24.61614 | 9433 ft | 289 kts | 136° |
| 2026-04-20 22:48 | 60.35076 | 24.64027 | 8735 ft | 291 kts | 150° |
| 2026-04-20 22:48 | 60.33143 | 24.65024 | 8333 ft | 284 kts | 178° |
| 2026-04-20 22:48 | 60.31269 | 24.64343 | 8160 ft | 268 kts | 202° |
| 2026-04-20 22:48 | 60.29748 | 24.62328 | 7722 ft | 260 kts | 226° |
| 2026-04-20 22:49 | 60.28526 | 24.59672 | 7414 ft | 258 kts | 228° |
| 2026-04-20 22:49 | 60.27306 | 24.57002 | 7280 ft | 260 kts | 228° |
| 2026-04-20 22:49 | 60.26066 | 24.54314 | 6893 ft | 265 kts | 224° |
| 2026-04-20 22:49 | 60.24527 | 24.52423 | 6556 ft | 260 kts | 194° |
| 2026-04-20 22:50 | 60.22759 | 24.52387 | 6192 ft | 251 kts | 160° |
| 2026-04-20 22:50 | 60.21264 | 24.53995 | 5773 ft | 245 kts | 135° |
| 2026-04-20 22:50 | 60.19986 | 24.56330 | 5247 ft | 250 kts | 133° |
| 2026-04-20 22:50 | 60.18733 | 24.58672 | 4824 ft | 241 kts | 132° |
| 2026-04-20 22:51 | 60.17852 | 24.61356 | 4318 ft | 227 kts | 99° |
| 2026-04-20 22:51 | 60.17948 | 24.64368 | 3945 ft | 211 kts | 64° |
| 2026-04-20 22:51 | 60.18748 | 24.66627 | 3685 ft | 189 kts | 46° |
| 2026-04-20 22:51 | 60.19612 | 24.68489 | 3458 ft | 178 kts | 46° |
| 2026-04-20 22:52 | 60.20450 | 24.70301 | 3221 ft | 176 kts | 46° |
| 2026-04-20 22:52 | 60.21281 | 24.72107 | 2990 ft | 176 kts | 47° |
| 2026-04-20 22:52 | 60.22101 | 24.73890 | 2789 ft | 169 kts | 48° |
| 2026-04-20 22:52 | 60.22875 | 24.75576 | 2533 ft | 161 kts | 49° |
| 2026-04-20 22:53 | 60.23631 | 24.77223 | 2325 ft | 160 kts | 50° |
| 2026-04-20 22:53 | 60.24380 | 24.78860 | 2115 ft | 162 kts | 50° |
| 2026-04-20 22:53 | 60.25145 | 24.80530 | 1928 ft | 162 kts | 49° |
| 2026-04-20 22:53 | 60.25881 | 24.82138 | 1691 ft | 151 kts | 49° |
| 2026-04-20 22:54 | 60.26588 | 24.83684 | 1485 ft | 145 kts | 47° |
| 2026-04-20 22:54 | 60.27255 | 24.85142 | 1304 ft | 142 kts | 47° |
| 2026-04-20 22:54 | 60.27911 | 24.86579 | 1114 ft | 137 kts | 46° |
| 2026-04-20 22:54 | 60.28551 | 24.87982 | 940 ft | 135 kts | 46° |
| 2026-04-20 22:55 | 60.29184 | 24.89370 | 763 ft | 134 kts | 46° |
| 2026-04-20 22:55 | 60.29814 | 24.90752 | 586 ft | 134 kts | 46° |
| 2026-04-20 22:55 | 60.30441 | 24.92128 | 407 ft | 133 kts | 46° |
| 2026-04-20 22:55 | 60.31068 | 24.93504 | 233 ft | 133 kts | 46° |
| 2026-04-20 22:56 | 60.31656 | 24.94796 | 169 ft | 106 kts | 47° |
| 2026-04-20 22:56 | 60.32041 | 24.95636 | 173 ft | 57 kts | 46° |
| 2026-04-20 22:56 | 60.32249 | 24.96102 | 178 ft | 31 kts | 47° |
| 2026-04-20 22:56 | 60.32377 | 24.96396 | 177 ft | 23 kts | 65° |
| 2026-04-20 22:57 | 60.32338 | 24.96624 | 171 ft | 17 kts | 149° |
| 2026-04-20 22:57 | 60.32258 | 24.96716 | 166 ft | 9 kts | 148° |
| 2026-04-20 22:57 | 60.32193 | 24.96740 | 166 ft | 10 kts | 207° |
| 2026-04-20 22:57 | 60.32140 | 24.96622 | 167 ft | 13 kts | 231° |
| 2026-04-20 22:58 | 60.32084 | 24.96503 | 167 ft | 11 kts | 226° |
| 2026-04-20 22:58 | 60.32022 | 24.96368 | 167 ft | 14 kts | 227° |
| 2026-04-20 22:58 | 60.31960 | 24.96232 | 167 ft | 13 kts | 227° |
| 2026-04-20 22:58 | 60.31897 | 24.96124 | 167 ft | 11 kts | 191° |
| 2026-04-20 22:59 | 60.31825 | 24.96114 | 167 ft | 10 kts | 211° |
| 2026-04-20 22:59 | 60.31774 | 24.96002 | 167 ft | 12 kts | 229° |
| 2026-04-20 22:59 | 60.31714 | 24.95871 | 167 ft | 13 kts | 226° |
| 2026-04-20 22:59 | 60.31655 | 24.95741 | 167 ft | 11 kts | 225° |
| 2026-04-20 23:00 | 60.31594 | 24.95661 | 167 ft | 10 kts | 218° |
| 2026-04-20 23:00 | 60.31575 | 24.95631 | 167 ft | 2 kts | 216° |
| 2026-04-20 23:00 | 60.31555 | 24.95635 | 167 ft | 4 kts | 157° |
| 2026-04-20 23:00 | 60.31530 | 24.95678 | 167 ft | 3 kts | 136° |
| 2026-04-20 23:01 | 60.31511 | 24.95714 | 167 ft | 3 kts | 137° |
| 2026-04-20 23:01 | 60.31508 | 24.95719 | 167 ft | 0 kts | 137° |